createdAt,value
2018-03-01T00:01:23.844Z,70.80
2018-03-01T00:03:51.292Z,70.50
2018-03-01T00:06:18.746Z,71.40
2018-03-01T00:08:46.192Z,70.30
2018-03-01T00:11:13.660Z,70.60
2018-03-01T00:13:41.100Z,70.10
2018-03-01T00:16:08.545Z,69.80
2018-03-01T00:18:36.773Z,69.50
2018-03-01T00:21:04.228Z,69.50
2018-03-01T00:23:31.691Z,69.70
2018-03-01T00:25:59.140Z,69.30
2018-03-01T00:28:26.598Z,69.40
2018-03-01T00:30:54.822Z,69.20
2018-03-01T00:33:22.273Z,69.20
2018-03-01T00:35:50.487Z,69.40
2018-03-01T00:38:17.928Z,69.40
2018-03-01T00:40:45.373Z,69.00
2018-03-01T00:43:14.781Z,69.00
2018-03-01T00:45:42.244Z,68.60
2018-03-01T00:48:09.688Z,68.70
2018-03-01T00:50:37.132Z,69.00
2018-03-01T00:53:05.363Z,68.80
2018-03-01T00:55:32.787Z,68.80
2018-03-01T00:58:00.236Z,69.10
2018-03-01T01:00:28.438Z,68.60
2018-03-01T01:02:55.893Z,68.60
2018-03-01T01:05:23.349Z,69.00
2018-03-01T01:07:50.792Z,67.50
2018-03-01T01:10:21.401Z,66.90
2018-03-01T01:12:49.635Z,67.20
2018-03-01T01:15:17.092Z,67.20
2018-03-01T01:17:44.540Z,67.30
2018-03-01T01:20:12.062Z,67.30
2018-03-01T01:22:40.269Z,65.70
2018-03-01T01:25:07.725Z,65.70
2018-03-01T01:27:35.180Z,66.30
2018-03-01T01:30:02.621Z,67.10
2018-03-01T01:32:30.067Z,66.10
2018-03-01T01:34:57.510Z,66.30
2018-03-01T01:37:25.726Z,66.00
2018-03-01T01:39:53.183Z,65.90
2018-03-01T01:42:20.641Z,65.90
2018-03-01T01:44:48.098Z,66.10
2018-03-01T01:47:15.540Z,66.50
2018-03-01T01:49:42.984Z,65.60
2018-03-01T01:52:10.424Z,65.60
2018-03-01T01:54:38.628Z,65.10
2018-03-01T01:57:06.098Z,65.10
2018-03-01T01:59:33.515Z,65.40
2018-03-01T02:02:01.729Z,65.30
2018-03-01T02:04:29.175Z,65.30
2018-03-01T02:06:56.624Z,65.40
2018-03-01T02:09:24.064Z,65.60
2018-03-01T02:11:52.280Z,66.30
2018-03-01T02:14:19.737Z,66.30
2018-03-01T02:16:47.174Z,66.20
2018-03-01T02:19:14.620Z,66.70
2018-03-01T02:21:42.841Z,66.90
2018-03-01T02:24:10.353Z,66.90
2018-03-01T02:26:38.570Z,66.50
2018-03-01T02:29:06.029Z,66.50
2018-03-01T02:31:33.476Z,66.80
2018-03-01T02:34:00.945Z,66.90
2018-03-01T02:36:33.346Z,67.50
2018-03-01T02:39:00.848Z,67.90
2018-03-01T02:41:28.389Z,68.00
2018-03-01T02:43:56.604Z,68.30
2018-03-01T02:46:24.057Z,68.30
2018-03-01T02:48:51.512Z,68.70
2018-03-01T02:51:18.952Z,68.10
2018-03-01T02:53:46.391Z,67.80
2018-03-01T02:56:14.610Z,68.40
2018-03-01T02:58:42.073Z,68.30
2018-03-01T03:01:09.536Z,69.00
2018-03-01T03:03:36.986Z,69.50
2018-03-01T03:06:04.439Z,69.10
2018-03-01T03:08:31.972Z,69.20
2018-03-01T03:10:59.414Z,69.70
2018-03-01T03:13:27.640Z,69.70
2018-03-01T03:15:55.088Z,69.70
2018-03-01T03:18:22.529Z,69.60
2018-03-01T03:20:49.984Z,69.20
2018-03-01T03:23:17.454Z,70.00
2018-03-01T03:25:44.918Z,69.40
2018-03-01T03:28:12.376Z,69.40
2018-03-01T03:30:40.589Z,70.30
2018-03-01T03:33:08.096Z,70.30
2018-03-01T03:35:35.541Z,69.80
2018-03-01T03:38:03.093Z,69.60
2018-03-01T03:40:30.546Z,70.30
2018-03-01T03:42:58.028Z,69.70
2018-03-01T03:45:25.567Z,69.40
2018-03-01T03:47:53.016Z,70.30
2018-03-01T03:50:20.472Z,70.50
2018-03-01T03:52:47.921Z,70.60
2018-03-01T03:55:16.141Z,72.30
2018-03-01T03:57:43.597Z,72.20
2018-03-01T04:00:11.050Z,71.30
2018-03-01T04:02:38.498Z,71.00
2018-03-01T04:05:05.960Z,70.40
2018-03-01T04:07:33.418Z,71.10
2018-03-01T04:10:00.886Z,71.00
2018-03-01T04:12:28.348Z,71.30
2018-03-01T04:14:55.807Z,71.40
2018-03-01T04:17:23.261Z,71.30
2018-03-01T04:19:50.728Z,71.40
2018-03-01T04:22:18.180Z,71.90
2018-03-01T04:24:45.700Z,71.30
2018-03-01T04:27:13.142Z,71.50
2018-03-01T04:29:41.384Z,71.30
2018-03-01T04:32:08.838Z,71.30
2018-03-01T04:34:36.367Z,71.20
2018-03-01T04:37:03.825Z,71.40
2018-03-01T04:39:31.304Z,71.80
2018-03-01T04:41:58.770Z,72.10
2018-03-01T04:44:26.310Z,72.20
2018-03-01T04:46:53.798Z,71.30
2018-03-01T04:49:21.268Z,72.10
2018-03-01T04:51:48.731Z,71.80
2018-03-01T04:54:16.197Z,72.60
2018-03-01T04:56:43.642Z,72.00
2018-03-01T04:59:11.109Z,71.70
2018-03-01T05:01:39.421Z,71.90
2018-03-01T05:04:06.888Z,71.90
2018-03-01T05:06:34.325Z,72.90
2018-03-01T05:09:01.892Z,72.10
2018-03-01T05:11:29.346Z,71.80
2018-03-01T05:13:56.814Z,71.50
2018-03-01T05:16:24.276Z,72.50
2018-03-01T05:18:51.787Z,72.10
2018-03-01T05:21:19.225Z,72.60
2018-03-01T05:23:46.690Z,72.40
2018-03-01T05:26:14.176Z,72.00
2018-03-01T05:28:42.410Z,71.50
2018-03-01T05:31:09.865Z,71.50
2018-03-01T05:33:37.333Z,71.50
2018-03-01T05:36:04.787Z,71.40
2018-03-01T05:38:32.260Z,70.60
2018-03-01T05:41:00.334Z,71.10
2018-03-01T05:43:28.577Z,70.50
2018-03-01T05:45:56.241Z,70.90
2018-03-01T05:48:23.710Z,70.80
2018-03-01T05:50:51.937Z,70.50
2018-03-01T05:53:19.407Z,70.60
2018-03-01T05:55:46.852Z,70.50
2018-03-01T05:58:14.408Z,70.20
2018-03-01T06:00:42.701Z,71.00
2018-03-01T06:03:10.258Z,71.00
2018-03-01T06:05:37.740Z,71.10
2018-03-01T06:08:05.453Z,70.60
2018-03-01T06:10:32.978Z,70.20
2018-03-01T06:13:01.199Z,70.30
2018-03-01T06:15:28.690Z,70.30
2018-03-01T06:17:56.142Z,70.40
2018-03-01T06:20:23.613Z,69.60
2018-03-01T06:22:51.071Z,70.20
2018-03-01T06:25:19.661Z,71.00
2018-03-01T06:27:47.129Z,69.20
2018-03-01T06:30:14.615Z,69.70
2018-03-01T06:32:42.112Z,69.70
2018-03-01T06:35:09.659Z,70.00
2018-03-01T06:37:37.115Z,69.60
2018-03-01T06:40:04.727Z,69.70
2018-03-01T06:42:32.321Z,70.20
2018-03-01T06:45:01.626Z,70.40
2018-03-01T06:47:29.098Z,70.40
2018-03-01T06:49:56.561Z,69.50
2018-03-01T06:52:24.017Z,69.00
2018-03-01T06:54:51.476Z,69.00
2018-03-01T06:57:18.939Z,68.80
2018-03-01T06:59:46.384Z,69.70
2018-03-01T07:02:13.866Z,68.90
2018-03-01T07:04:41.339Z,69.10
2018-03-01T07:07:08.799Z,67.80
2018-03-01T07:09:36.251Z,68.30
2018-03-01T07:12:03.712Z,67.70
2018-03-01T07:14:31.171Z,67.30
2018-03-01T07:16:58.658Z,67.50
2018-03-01T07:19:26.084Z,68.30
2018-03-01T07:21:53.547Z,68.60
2018-03-01T07:24:21.011Z,67.10
2018-03-01T07:26:48.506Z,67.40
2018-03-01T07:29:16.729Z,67.70
2018-03-01T07:31:45.350Z,67.70
2018-03-01T07:34:12.802Z,66.30
2018-03-01T07:36:40.260Z,66.20
2018-03-01T07:39:07.718Z,66.90
2018-03-01T07:41:35.937Z,66.00
2018-03-01T07:44:03.387Z,66.00
2018-03-01T07:46:30.850Z,65.70
2018-03-01T07:48:58.339Z,64.60
2018-03-01T07:51:25.849Z,64.00
2018-03-01T07:53:53.337Z,63.80
2018-03-01T07:56:20.881Z,63.00
2018-03-01T07:58:48.323Z,63.80
2018-03-01T08:01:16.815Z,63.30
2018-03-01T08:03:44.277Z,62.10
2018-03-01T08:06:11.728Z,61.50
2018-03-01T08:08:39.184Z,61.50
2018-03-01T08:11:06.682Z,61.70
2018-03-01T08:13:34.149Z,61.40
2018-03-01T08:16:01.657Z,60.50
2018-03-01T08:18:29.115Z,59.80
2018-03-01T08:20:56.569Z,59.20
2018-03-01T08:23:24.045Z,59.40
2018-03-01T08:25:51.513Z,59.10
2018-03-01T08:28:19.041Z,58.10
2018-03-01T08:30:47.262Z,57.70
2018-03-01T08:33:14.725Z,57.70
2018-03-01T08:35:42.190Z,56.40
2018-03-01T08:38:09.720Z,56.30
2018-03-01T08:40:37.251Z,55.30
2018-03-01T08:43:05.751Z,55.50
2018-03-01T08:45:34.233Z,55.80
2018-03-01T08:48:01.693Z,55.40
2018-03-01T08:50:29.233Z,54.70
2018-03-01T08:52:57.717Z,54.10
2018-03-01T08:55:25.180Z,53.70
2018-03-01T08:57:52.627Z,54.00
2018-03-01T09:00:20.846Z,53.40
2018-03-01T09:02:48.286Z,53.40
2018-03-01T09:05:15.824Z,52.90
2018-03-01T09:07:43.262Z,52.80
2018-03-01T09:10:12.477Z,52.40
2018-03-01T09:12:39.928Z,52.40
2018-03-01T09:15:07.383Z,51.50
2018-03-01T09:17:35.657Z,50.80
2018-03-01T09:20:03.894Z,48.60
2018-03-01T09:22:31.374Z,48.60
2018-03-01T09:24:58.866Z,48.30
2018-03-01T09:27:26.302Z,47.30
2018-03-01T09:29:54.535Z,45.10
2018-03-01T09:32:22.055Z,45.10
2018-03-01T09:34:49.675Z,44.60
2018-03-01T09:37:17.168Z,44.50
2018-03-01T09:39:44.617Z,43.20
2018-03-01T09:42:13.274Z,42.30
2018-03-01T09:44:41.554Z,42.70
2018-03-01T09:47:09.048Z,42.70
2018-03-01T09:49:36.491Z,42.30
2018-03-01T09:52:04.779Z,39.80
2018-03-01T09:54:32.230Z,39.80
2018-03-01T09:56:59.695Z,39.30
2018-03-01T09:59:27.149Z,38.20
2018-03-01T10:01:55.457Z,36.30
2018-03-01T10:04:22.904Z,36.20
2018-03-01T10:06:50.380Z,35.60
2018-03-01T10:09:17.824Z,34.50
2018-03-01T10:11:45.275Z,34.20
2018-03-01T10:14:12.725Z,33.50
2018-03-01T10:16:40.188Z,33.80
2018-03-01T10:19:07.631Z,33.70
2018-03-01T10:21:35.079Z,34.20
2018-03-01T10:24:03.289Z,33.20
2018-03-01T10:26:30.728Z,33.20
2018-03-01T10:28:58.197Z,33.20
2018-03-01T10:31:25.636Z,32.60
2018-03-01T10:33:53.096Z,32.20
2018-03-01T10:36:20.553Z,32.40
2018-03-01T10:38:47.984Z,32.60
2018-03-01T10:41:16.218Z,32.60
2018-03-01T10:43:44.421Z,32.80
2018-03-01T10:46:11.965Z,32.80
2018-03-01T10:48:39.505Z,33.70
2018-03-01T10:51:07.013Z,32.70
2018-03-01T10:53:35.414Z,32.30
2018-03-01T10:56:03.615Z,32.90
2018-03-01T10:58:31.174Z,32.80
2018-03-01T11:00:59.649Z,33.60
2018-03-01T11:03:27.230Z,34.10
2018-03-01T11:05:54.679Z,34.10
2018-03-01T11:08:22.154Z,34.10
2018-03-01T11:10:49.593Z,34.60
2018-03-01T11:13:17.175Z,34.80
2018-03-01T11:15:47.323Z,34.90
2018-03-01T11:18:14.882Z,34.00
2018-03-01T11:20:42.437Z,33.30
2018-03-01T11:23:10.184Z,33.70
2018-03-01T11:25:39.018Z,32.60
2018-03-01T11:28:10.512Z,33.80
2018-03-01T11:30:38.489Z,33.80
2018-03-01T11:33:06.074Z,33.60
2018-03-01T11:35:33.522Z,33.20
2018-03-01T11:38:00.963Z,32.60
2018-03-01T11:40:28.430Z,33.20
2018-03-01T11:42:55.915Z,33.30
2018-03-01T11:45:23.389Z,33.10
2018-03-01T11:47:50.820Z,33.20
2018-03-01T11:50:19.052Z,32.80
2018-03-01T11:52:46.489Z,32.70
2018-03-01T11:55:13.927Z,33.40
2018-03-01T11:57:41.376Z,33.40
2018-03-01T12:00:09.614Z,32.70
2018-03-01T12:02:37.070Z,32.60
2018-03-01T12:05:04.535Z,33.50
2018-03-01T12:07:31.990Z,33.50
2018-03-01T12:09:59.445Z,34.20
2018-03-01T12:12:26.902Z,33.50
2018-03-01T12:14:54.388Z,33.70
2018-03-01T12:17:22.603Z,32.80
2018-03-01T12:19:50.134Z,32.80
2018-03-01T12:22:18.420Z,33.30
2018-03-01T12:24:45.866Z,33.30
2018-03-01T12:27:14.102Z,32.60
2018-03-01T12:29:41.564Z,32.60
2018-03-01T12:32:09.024Z,32.80
2018-03-01T12:34:36.475Z,33.30
2018-03-01T12:37:03.929Z,33.20
2018-03-01T12:39:31.390Z,32.60
2018-03-01T12:41:58.837Z,32.80
2018-03-01T12:44:27.048Z,32.10
2018-03-01T12:46:54.494Z,32.10
2018-03-01T12:49:21.960Z,32.50
2018-03-01T12:51:49.481Z,32.40
2018-03-01T12:54:17.832Z,32.20
2018-03-01T12:56:45.477Z,32.20
2018-03-01T12:59:12.942Z,32.60
2018-03-01T13:01:40.390Z,32.20
2018-03-01T13:04:08.605Z,31.70
2018-03-01T13:06:36.078Z,31.70
2018-03-01T13:09:03.604Z,32.10
2018-03-01T13:11:31.051Z,32.20
2018-03-01T13:13:58.508Z,31.90
2018-03-01T13:16:25.945Z,32.20
2018-03-01T13:18:54.190Z,32.10
2018-03-01T13:21:21.730Z,32.00
2018-03-01T13:23:49.257Z,31.80
2018-03-01T13:26:16.706Z,31.80
2018-03-01T13:28:44.926Z,31.70
2018-03-01T13:31:14.348Z,31.60
2018-03-01T13:36:50.489Z,31.90
2018-03-01T13:39:17.937Z,31.60
2018-03-01T13:41:45.377Z,32.40
2018-03-01T13:44:13.620Z,32.00
2018-03-01T13:46:41.521Z,32.00
2018-03-01T13:49:08.978Z,32.10
2018-03-01T13:51:37.189Z,31.90
2018-03-01T13:54:04.659Z,31.90
2018-03-01T13:56:32.182Z,31.90
2018-03-01T13:58:59.644Z,32.10
2018-03-01T14:01:27.154Z,31.70
2018-03-01T14:03:54.617Z,31.60
2018-03-01T14:06:24.036Z,31.10
2018-03-01T14:08:54.938Z,31.30
2018-03-01T14:11:22.392Z,31.20
2018-03-01T14:13:49.852Z,31.20
2018-03-01T14:16:17.321Z,31.80
2018-03-01T14:18:45.539Z,31.70
2018-03-01T14:21:24.714Z,31.70
2018-03-01T14:23:53.763Z,31.30
2018-03-01T14:26:21.255Z,31.30
2018-03-01T14:28:51.201Z,31.60
2018-03-01T14:31:18.659Z,31.20
2018-03-01T14:33:46.113Z,31.20
2018-03-01T14:36:13.620Z,31.10
2018-03-01T14:38:41.086Z,31.20
2018-03-01T14:41:08.536Z,31.00
2018-03-01T14:43:35.993Z,31.00
2018-03-01T14:46:03.430Z,31.00
2018-03-01T14:48:31.660Z,30.80
2018-03-01T14:50:59.111Z,30.80
2018-03-01T14:53:26.564Z,31.00
2018-03-01T14:55:54.034Z,30.90
2018-03-01T14:58:21.485Z,30.60
2018-03-01T15:00:48.927Z,30.90
2018-03-01T15:03:16.377Z,30.80
2018-03-01T15:05:43.817Z,30.80
2018-03-01T15:08:11.368Z,30.60
2018-03-01T15:10:39.581Z,30.70
2018-03-01T15:13:07.042Z,30.70
2018-03-01T15:15:34.488Z,30.30
2018-03-01T15:18:01.944Z,30.40
2018-03-01T15:20:29.399Z,30.80
2018-03-01T15:22:56.837Z,30.40
2018-03-01T15:25:24.297Z,30.10
2018-03-01T15:27:51.758Z,30.30
2018-03-01T15:30:20.025Z,31.00
2018-03-01T15:32:48.229Z,31.40
2018-03-01T15:35:15.688Z,31.40
2018-03-01T15:37:43.148Z,30.90
2018-03-01T15:40:10.609Z,31.10
2018-03-01T15:42:38.060Z,30.80
2018-03-01T15:45:05.528Z,31.30
2018-03-01T15:47:32.972Z,31.10
2018-03-01T15:50:00.471Z,30.90
2018-03-01T15:52:27.961Z,30.80
2018-03-01T15:54:56.420Z,31.40
2018-03-01T15:57:25.037Z,31.90
2018-03-01T15:59:52.500Z,31.90
2018-03-01T16:02:19.948Z,30.90
2018-03-01T16:04:47.400Z,31.10
2018-03-01T16:07:15.618Z,31.30
2018-03-01T16:09:43.129Z,31.30
2018-03-01T16:12:11.347Z,31.20
2018-03-01T16:14:39.571Z,31.80
2018-03-01T16:17:07.789Z,31.30
2018-03-01T16:19:35.485Z,31.20
2018-03-01T16:22:02.974Z,31.20
2018-03-01T16:24:31.235Z,31.50
2018-03-01T16:26:58.677Z,31.50
2018-03-01T16:29:26.130Z,31.50
2018-03-01T16:31:53.604Z,31.20
2018-03-01T16:34:21.064Z,31.40
2018-03-01T16:36:48.496Z,31.60
2018-03-01T16:39:15.946Z,31.60
2018-03-01T16:41:43.412Z,31.50
2018-03-01T16:44:10.871Z,32.10
2018-03-01T16:46:38.931Z,31.50
2018-03-01T16:49:06.379Z,31.30
2018-03-01T16:51:33.832Z,31.30
2018-03-01T16:54:01.495Z,31.20
2018-03-01T16:56:28.958Z,31.80
2018-03-01T16:58:56.452Z,32.60
2018-03-01T17:01:23.904Z,32.00
2018-03-01T17:03:51.395Z,32.00
2018-03-01T17:06:19.872Z,31.90
2018-03-01T17:08:48.106Z,31.90
2018-03-01T17:11:15.554Z,31.90
2018-03-01T17:13:43.009Z,32.30
2018-03-01T17:16:10.539Z,32.20
2018-03-01T17:18:38.000Z,32.20
2018-03-01T17:21:05.447Z,32.10
2018-03-01T17:23:32.902Z,32.20
2018-03-01T17:26:00.424Z,32.40
2018-03-01T17:28:27.964Z,32.30
2018-03-01T17:30:55.406Z,32.30
2018-03-01T17:33:23.010Z,32.60
2018-03-01T17:35:50.443Z,32.50
2018-03-01T17:38:17.952Z,32.60
2018-03-01T17:40:45.424Z,32.60
2018-03-01T17:43:12.910Z,32.70
2018-03-01T17:45:40.416Z,32.80
2018-03-01T17:48:08.649Z,32.80
2018-03-01T17:50:36.110Z,32.70
2018-03-01T17:53:03.569Z,33.00
2018-03-01T17:55:31.028Z,33.20
2018-03-01T17:57:58.477Z,33.00
2018-03-01T18:00:25.973Z,33.30
2018-03-01T18:02:53.388Z,33.20
2018-03-01T18:05:20.858Z,33.30
2018-03-01T18:07:49.893Z,33.10
2018-03-01T18:10:18.118Z,33.30
2018-03-01T18:12:45.562Z,33.30
2018-03-01T18:15:14.140Z,33.30
2018-03-01T18:17:41.586Z,33.20
2018-03-01T18:20:09.037Z,33.20
2018-03-01T18:22:36.480Z,33.30
2018-03-01T18:25:03.931Z,33.70
2018-03-01T18:27:32.145Z,33.30
2018-03-01T18:29:59.604Z,33.30
2018-03-01T18:32:27.053Z,33.50
2018-03-01T18:34:54.589Z,33.70
2018-03-01T18:37:22.025Z,33.70
2018-03-01T18:39:50.313Z,33.90
2018-03-01T18:42:18.581Z,33.80
2018-03-01T18:44:46.799Z,33.90
2018-03-01T18:47:14.253Z,33.90
2018-03-01T18:49:41.765Z,33.60
2018-03-01T18:52:10.057Z,33.60
2018-03-01T18:54:38.274Z,33.70
2018-03-01T18:57:05.729Z,33.60
2018-03-01T18:59:33.182Z,33.60
2018-03-01T19:02:00.653Z,34.00
2018-03-01T19:04:28.106Z,34.00
2018-03-01T19:06:55.556Z,34.20
2018-03-01T19:09:23.011Z,34.10
2018-03-01T19:11:50.505Z,34.30
2018-03-01T19:14:17.954Z,34.30
2018-03-01T19:16:45.398Z,34.50
2018-03-01T19:19:12.845Z,34.40
2018-03-01T19:21:40.301Z,34.80
2018-03-01T19:24:07.756Z,35.20
2018-03-01T19:26:35.216Z,34.70
2018-03-01T19:29:02.768Z,35.20
2018-03-01T19:31:30.228Z,35.20
2018-03-01T19:33:57.677Z,35.00
2018-03-01T19:36:25.127Z,35.30
2018-03-01T19:38:52.582Z,35.00
2018-03-01T19:41:20.028Z,35.20
2018-03-01T19:43:47.476Z,35.20
2018-03-01T19:46:15.702Z,35.40
2018-03-01T19:48:43.210Z,35.40
2018-03-01T19:51:11.435Z,35.30
2018-03-01T19:53:38.890Z,35.30
2018-03-01T19:56:06.349Z,35.90
2018-03-01T19:58:33.796Z,35.10
2018-03-01T20:01:01.254Z,35.50
2018-03-01T20:03:28.703Z,35.30
2018-03-01T20:05:56.176Z,35.30
2018-03-01T20:08:23.695Z,35.10
2018-03-01T20:10:52.040Z,35.10
2018-03-01T20:13:19.446Z,35.10
2018-03-01T20:15:46.909Z,35.50
2018-03-01T20:18:14.484Z,35.50
2018-03-01T20:20:42.930Z,35.40
2018-03-01T20:23:11.228Z,35.40
2018-03-01T20:25:38.690Z,35.40
2018-03-01T20:28:06.150Z,35.70
2018-03-01T20:30:34.654Z,35.70
2018-03-01T20:33:02.116Z,35.70
2018-03-01T20:35:29.569Z,36.20
2018-03-01T20:37:57.050Z,36.00
2018-03-01T20:40:24.507Z,36.30
2018-03-01T20:42:51.990Z,36.50
2018-03-01T20:45:20.211Z,36.80
2018-03-01T20:47:47.657Z,36.80
2018-03-01T20:50:15.112Z,37.10
2018-03-01T20:52:42.576Z,37.30
2018-03-01T20:55:10.041Z,37.30
2018-03-01T20:57:37.493Z,37.20
2018-03-01T21:00:04.960Z,36.90
2018-03-01T21:02:32.404Z,37.10
2018-03-01T21:04:59.934Z,37.50
2018-03-01T21:07:27.375Z,37.50
2018-03-01T21:09:55.600Z,37.70
2018-03-01T21:12:23.131Z,37.70
2018-03-01T21:14:50.586Z,38.00
2018-03-01T21:17:18.034Z,38.00
2018-03-01T21:19:45.511Z,38.00
2018-03-01T21:22:13.056Z,38.00
2018-03-01T21:24:40.498Z,37.90
2018-03-01T21:27:08.726Z,38.20
2018-03-01T21:29:36.168Z,38.10
2018-03-01T21:32:03.734Z,39.00
2018-03-01T21:34:31.184Z,38.90
2018-03-01T21:36:58.640Z,38.90
2018-03-01T21:39:26.086Z,39.10
2018-03-01T21:41:53.629Z,38.90
2018-03-01T21:44:21.073Z,38.70
2018-03-01T21:47:01.292Z,38.80
2018-03-01T21:49:28.749Z,38.80
2018-03-01T21:51:56.197Z,38.90
2018-03-01T21:54:23.662Z,38.80
2018-03-01T21:56:51.109Z,39.10
2018-03-01T21:59:18.634Z,39.10
2018-03-01T22:01:46.115Z,39.10
2018-03-01T22:04:14.292Z,39.30
2018-03-01T22:06:41.732Z,39.30
2018-03-01T22:09:09.198Z,39.30
2018-03-01T22:11:36.664Z,40.00
2018-03-01T22:14:04.118Z,39.40
2018-03-01T22:16:31.644Z,39.50
2018-03-01T22:18:59.993Z,39.60
2018-03-01T22:21:27.515Z,39.60
2018-03-01T22:23:55.040Z,39.90
2018-03-01T22:26:23.321Z,39.40
2018-03-01T22:28:51.544Z,39.40
2018-03-01T22:31:18.987Z,39.40
2018-03-01T22:33:46.435Z,39.80
2018-03-01T22:36:13.955Z,40.10
2018-03-01T22:38:42.244Z,40.50
2018-03-01T22:41:09.693Z,40.50
2018-03-01T22:43:37.914Z,40.20
2018-03-01T22:46:05.366Z,40.20
2018-03-01T22:48:32.812Z,40.50
2018-03-01T22:51:00.290Z,40.30
2018-03-01T22:53:27.742Z,39.90
2018-03-01T22:55:55.220Z,40.20
2018-03-01T22:58:23.477Z,40.20
2018-03-01T23:00:53.741Z,40.20
2018-03-01T23:03:21.190Z,40.40
2018-03-01T23:05:48.646Z,40.80
2018-03-01T23:08:16.084Z,40.30
2018-03-01T23:10:43.547Z,40.50
2018-03-01T23:13:10.989Z,40.60
2018-03-01T23:15:38.441Z,40.70
2018-03-01T23:18:05.882Z,41.10
2018-03-01T23:20:33.338Z,40.70
2018-03-01T23:23:01.562Z,41.10
2018-03-01T23:25:29.018Z,41.10
2018-03-01T23:27:56.478Z,41.30
2018-03-01T23:30:23.933Z,41.40
2018-03-01T23:32:51.384Z,41.30
2018-03-01T23:35:18.838Z,41.30
2018-03-01T23:37:46.299Z,41.50
2018-03-01T23:40:13.752Z,41.70
2018-03-01T23:42:41.212Z,41.50
2018-03-01T23:45:08.661Z,41.50
2018-03-01T23:47:36.108Z,41.60
2018-03-01T23:50:03.560Z,41.40
2018-03-01T23:52:31.010Z,41.20
2018-03-01T23:54:58.473Z,41.50
2018-03-01T23:57:25.930Z,41.80
2018-03-01T23:59:53.371Z,41.90
